createdAt,value
2016-07-11T00:00:13.983Z,20.66
2016-07-11T00:01:13.989Z,20.61
2016-07-11T00:02:13.997Z,20.71
2016-07-11T00:03:14.005Z,20.65
2016-07-11T00:04:13.968Z,20.66
2016-07-11T00:05:14.002Z,20.61
2016-07-11T00:06:13.996Z,20.58
2016-07-11T00:07:13.992Z,20.62
2016-07-11T00:08:14.049Z,20.59
2016-07-11T00:09:13.978Z,20.59
2016-07-11T00:10:13.982Z,20.61
2016-07-11T00:11:14.014Z,20.62
2016-07-11T00:12:13.985Z,20.51
2016-07-11T00:13:13.992Z,20.64
2016-07-11T00:14:14.071Z,20.59
2016-07-11T00:15:14.059Z,20.54
2016-07-11T00:16:13.998Z,20.62
2016-07-11T00:17:13.995Z,20.64
2016-07-11T00:18:14.047Z,20.66
2016-07-11T00:19:15.057Z,20.61
2016-07-11T00:20:14.023Z,20.59
2016-07-11T00:21:14.017Z,20.69
2016-07-11T00:22:14.055Z,20.76
2016-07-11T00:23:14.032Z,20.81
2016-07-11T00:24:13.999Z,20.8
2016-07-11T00:25:14.056Z,20.79
2016-07-11T00:26:14.024Z,20.8
2016-07-11T00:27:14.016Z,20.79
2016-07-11T00:28:14.027Z,20.69
2016-07-11T00:29:14.030Z,20.81
2016-07-11T00:30:14.600Z,20.81
2016-07-11T00:31:14.031Z,20.86
2016-07-11T00:32:14.091Z,20.83
2016-07-11T00:33:14.626Z,20.86
2016-07-11T00:34:14.070Z,20.71
2016-07-11T00:35:14.029Z,20.76
2016-07-11T00:36:14.072Z,20.8
2016-07-11T00:37:14.062Z,20.8
2016-07-11T00:38:14.027Z,20.77
2016-07-11T00:39:14.011Z,20.81
2016-07-11T00:40:14.062Z,20.76
2016-07-11T00:41:14.026Z,20.81
2016-07-11T00:42:14.036Z,20.79
2016-07-11T00:43:14.067Z,20.81
2016-07-11T00:44:14.075Z,20.79
2016-07-11T00:45:14.027Z,20.77
2016-07-11T00:46:14.033Z,20.81
2016-07-11T00:47:14.038Z,20.83
2016-07-11T00:48:14.044Z,20.77
2016-07-11T00:49:14.051Z,20.77
2016-07-11T00:50:14.057Z,20.77
2016-07-11T00:51:14.122Z,20.76
2016-07-11T00:52:14.069Z,20.81
2016-07-11T00:53:14.007Z,20.76
2016-07-11T00:54:14.023Z,20.76
2016-07-11T00:55:14.026Z,20.86
2016-07-11T00:56:14.029Z,20.8
2016-07-11T00:57:14.041Z,20.9
2016-07-11T00:58:14.049Z,20.89
2016-07-11T00:59:14.052Z,20.64
2016-07-11T01:00:14.063Z,20.81
2016-07-11T01:01:14.023Z,20.72
2016-07-11T01:02:14.033Z,20.62
2016-07-11T01:03:14.052Z,20.76
2016-07-11T01:04:14.047Z,20.74
2016-07-11T01:05:14.022Z,20.69
2016-07-11T01:06:14.061Z,20.71
2016-07-11T01:07:14.031Z,20.62
2016-07-11T01:08:14.057Z,20.65
2016-07-11T01:09:14.090Z,20.5
2016-07-11T01:10:14.062Z,20.56
2016-07-11T01:11:14.040Z,20.56
2016-07-11T01:12:14.029Z,20.61
2016-07-11T01:13:14.096Z,20.61
2016-07-11T01:14:14.087Z,20.47
2016-07-11T01:15:14.046Z,20.5
2016-07-11T01:16:14.094Z,20.5
2016-07-11T01:17:14.081Z,20.51
2016-07-11T01:18:14.092Z,20.47
2016-07-11T01:19:14.089Z,20.33
2016-07-11T01:20:14.060Z,20.35
2016-07-11T01:21:14.078Z,20.43
2016-07-11T01:22:14.071Z,20.34
2016-07-11T01:23:14.100Z,20.38
2016-07-11T01:24:14.126Z,20.34
2016-07-11T01:25:14.092Z,20.33
2016-07-11T01:26:14.054Z,20.31
2016-07-11T01:27:14.083Z,20.38
2016-07-11T01:28:14.093Z,20.23
2016-07-11T01:29:14.051Z,20.31
2016-07-11T01:30:14.069Z,20.21
2016-07-11T01:31:14.061Z,20.12
2016-07-11T01:32:14.083Z,20.21
2016-07-11T01:33:14.074Z,20.24
2016-07-11T01:34:14.093Z,20.13
2016-07-11T01:35:14.065Z,20.16
2016-07-11T01:36:14.087Z,20.09
2016-07-11T01:37:14.138Z,20.2
2016-07-11T01:38:14.085Z,20.03
2016-07-11T01:39:14.059Z,20.06
2016-07-11T01:40:14.092Z,20.02
2016-07-11T01:41:14.076Z,20.02
2016-07-11T01:42:14.094Z,20.02
2016-07-11T01:43:14.104Z,19.98
2016-07-11T01:44:14.106Z,19.93
2016-07-11T01:45:14.092Z,19.84
2016-07-11T01:46:14.094Z,19.84
2016-07-11T01:47:14.065Z,19.83
2016-07-11T01:48:14.079Z,19.86
2016-07-11T01:49:14.085Z,19.83
2016-07-11T01:50:14.096Z,19.8
2016-07-11T01:51:14.093Z,19.7
2016-07-11T01:52:14.067Z,19.78
2016-07-11T01:53:14.121Z,19.68
2016-07-11T01:54:14.109Z,19.66
2016-07-11T01:55:14.093Z,19.65
2016-07-11T01:56:14.095Z,19.68
2016-07-11T01:57:14.091Z,19.69
2016-07-11T01:58:14.092Z,19.72
2016-07-11T01:59:14.133Z,19.7
2016-07-11T02:00:14.107Z,19.72
2016-07-11T02:01:14.100Z,19.6
2016-07-11T02:02:14.126Z,19.58
2016-07-11T02:03:14.099Z,19.6
2016-07-11T02:04:14.093Z,19.55
2016-07-11T02:05:14.095Z,19.68
2016-07-11T02:06:14.095Z,19.6
2016-07-11T02:07:14.096Z,19.57
2016-07-11T02:08:14.133Z,19.58
2016-07-11T02:09:14.120Z,19.58
2016-07-11T02:10:14.096Z,19.65
2016-07-11T02:11:14.096Z,19.68
2016-07-11T02:12:14.065Z,19.68
2016-07-11T02:13:14.089Z,19.65
2016-07-11T02:14:14.096Z,19.73
2016-07-11T02:15:14.099Z,19.6
2016-07-11T02:16:14.126Z,19.58
2016-07-11T02:17:14.114Z,19.65
2016-07-11T02:18:14.156Z,19.76
2016-07-11T02:19:14.101Z,19.78
2016-07-11T02:20:14.107Z,19.7
2016-07-11T02:21:14.096Z,19.83
2016-07-11T02:22:14.125Z,19.75
2016-07-11T02:23:14.089Z,19.75
2016-07-11T02:24:14.126Z,19.76
2016-07-11T02:25:14.150Z,19.75
2016-07-11T02:26:14.125Z,19.76
2016-07-11T02:27:14.101Z,19.76
2016-07-11T02:28:14.146Z,19.72
2016-07-11T02:29:14.132Z,19.78
2016-07-11T02:30:14.105Z,19.75
2016-07-11T02:31:14.170Z,19.69
2016-07-11T02:32:14.158Z,19.8
2016-07-11T02:33:14.230Z,19.83
2016-07-11T02:34:14.115Z,19.79
2016-07-11T02:35:14.327Z,19.78
2016-07-11T02:36:14.148Z,19.68
2016-07-11T02:37:14.148Z,19.7
2016-07-11T02:38:14.130Z,19.72
2016-07-11T02:39:14.150Z,19.66
2016-07-11T02:40:14.157Z,19.66
2016-07-11T02:41:14.164Z,19.66
2016-07-11T02:42:14.158Z,19.51
2016-07-11T02:43:14.167Z,19.6
2016-07-11T02:44:14.127Z,19.54
2016-07-11T02:45:14.157Z,19.5
2016-07-11T02:46:14.157Z,19.51
2016-07-11T02:47:14.119Z,19.55
2016-07-11T02:48:14.133Z,19.61
2016-07-11T02:49:14.156Z,19.54
2016-07-11T02:50:14.141Z,19.61
2016-07-11T02:51:14.195Z,19.51
2016-07-11T02:52:14.158Z,19.61
2016-07-11T02:53:14.143Z,19.58
2016-07-11T02:54:14.158Z,19.65
2016-07-11T02:55:14.158Z,19.58
2016-07-11T02:56:14.186Z,19.55
2016-07-11T02:57:14.185Z,19.57
2016-07-11T02:58:14.158Z,19.55
2016-07-11T02:59:14.138Z,19.46
2016-07-11T03:00:14.132Z,19.57
2016-07-11T03:01:14.200Z,19.55
2016-07-11T03:02:14.187Z,19.58
2016-07-11T03:03:14.164Z,19.61
2016-07-11T03:04:14.158Z,19.61
2016-07-11T03:05:14.195Z,19.68
2016-07-11T03:06:14.175Z,19.65
2016-07-11T03:07:14.199Z,19.6
2016-07-11T03:08:14.175Z,19.57
2016-07-11T03:09:14.154Z,19.54
2016-07-11T03:10:14.157Z,19.57
2016-07-11T03:11:14.164Z,19.68
2016-07-11T03:12:14.159Z,19.57
2016-07-11T03:13:14.151Z,19.57
2016-07-11T03:14:14.164Z,19.66
2016-07-11T03:15:14.195Z,19.61
2016-07-11T03:16:14.218Z,19.63
2016-07-11T03:17:14.162Z,19.61
2016-07-11T03:18:14.156Z,19.7
2016-07-11T03:19:14.160Z,19.61
2016-07-11T03:20:14.198Z,19.57
2016-07-11T03:21:14.225Z,19.63
2016-07-11T03:22:14.220Z,19.54
2016-07-11T03:23:14.182Z,19.65
2016-07-11T03:24:14.223Z,19.63
2016-07-11T03:25:14.160Z,19.61
2016-07-11T03:26:14.172Z,19.75
2016-07-11T03:27:14.179Z,19.7
2016-07-11T03:28:14.219Z,19.66
2016-07-11T03:29:14.203Z,19.69
2016-07-11T03:30:14.168Z,19.66
2016-07-11T03:31:14.175Z,19.7
2016-07-11T03:32:14.166Z,19.68
2016-07-11T03:33:14.176Z,19.69
2016-07-11T03:34:14.187Z,19.65
2016-07-11T03:35:14.190Z,19.79
2016-07-11T03:36:14.189Z,19.75
2016-07-11T03:37:14.190Z,19.76
2016-07-11T03:38:14.186Z,19.75
2016-07-11T03:39:14.181Z,19.87
2016-07-11T03:40:14.234Z,19.72
2016-07-11T03:41:14.198Z,19.79
2016-07-11T03:42:14.212Z,19.8
2016-07-11T03:43:14.218Z,19.79
2016-07-11T03:44:14.235Z,19.83
2016-07-11T03:45:14.231Z,19.75
2016-07-11T03:46:14.284Z,19.65
2016-07-11T03:47:14.253Z,19.72
2016-07-11T03:48:14.266Z,19.76
2016-07-11T03:49:14.221Z,19.68
2016-07-11T03:50:14.221Z,19.68
2016-07-11T03:51:14.222Z,19.72
2016-07-11T03:52:14.266Z,19.79
2016-07-11T03:53:14.198Z,19.7
2016-07-11T03:54:14.207Z,19.75
2016-07-11T03:55:14.242Z,19.72
2016-07-11T03:56:14.203Z,19.84
2016-07-11T03:57:14.196Z,19.73
2016-07-11T03:58:14.222Z,19.8
2016-07-11T03:59:14.223Z,19.79
2016-07-11T04:00:14.191Z,19.78
2016-07-11T04:01:14.224Z,19.73
2016-07-11T04:02:14.222Z,19.83
2016-07-11T04:03:14.206Z,19.83
2016-07-11T04:04:14.315Z,19.79
2016-07-11T04:05:14.282Z,19.8
2016-07-11T04:06:14.286Z,19.79
2016-07-11T04:07:14.245Z,19.79
2016-07-11T04:08:14.251Z,19.84
2016-07-11T04:09:14.251Z,19.83
2016-07-11T04:10:14.252Z,19.79
2016-07-11T04:11:14.214Z,19.84
2016-07-11T04:12:14.225Z,19.79
2016-07-11T04:13:14.221Z,19.94
2016-07-11T04:14:14.209Z,19.79
2016-07-11T04:15:14.217Z,19.84
2016-07-11T04:16:14.266Z,19.84
2016-07-11T04:17:14.211Z,19.86
2016-07-11T04:18:14.249Z,19.91
2016-07-11T04:19:14.268Z,19.87
2016-07-11T04:20:14.264Z,19.76
2016-07-11T04:21:14.265Z,19.75
2016-07-11T04:22:14.251Z,19.8
2016-07-11T04:23:14.198Z,19.9
2016-07-11T04:24:14.243Z,20.03
2016-07-11T04:25:14.222Z,19.83
2016-07-11T04:26:14.280Z,19.84
2016-07-11T04:27:14.273Z,19.94
2016-07-11T04:28:14.258Z,19.88
2016-07-11T04:29:14.281Z,19.97
2016-07-11T04:30:14.284Z,19.97
2016-07-11T04:31:14.270Z,19.9
2016-07-11T04:32:14.251Z,19.94
2016-07-11T04:33:14.258Z,19.95
2016-07-11T04:34:14.231Z,20.03
2016-07-11T04:35:14.292Z,20.03
2016-07-11T04:36:14.270Z,19.98
2016-07-11T04:37:14.325Z,20.06
2016-07-11T04:38:14.256Z,19.98
2016-07-11T04:39:14.233Z,20.02
2016-07-11T04:40:14.242Z,20.02
2016-07-11T04:41:14.254Z,20.09
2016-07-11T04:42:14.231Z,20.13
2016-07-11T04:43:14.249Z,20.08
2016-07-11T04:44:14.253Z,20.21
2016-07-11T04:45:14.309Z,20.08
2016-07-11T04:46:14.314Z,20.15
2016-07-11T04:47:14.252Z,20.21
2016-07-11T04:48:14.227Z,20.16
2016-07-11T04:49:14.235Z,20.12
2016-07-11T04:50:14.263Z,20.18
2016-07-11T04:51:14.241Z,20.33
2016-07-11T04:52:14.283Z,20.24
2016-07-11T04:53:14.269Z,20.34
2016-07-11T04:54:14.238Z,20.27
2016-07-11T04:55:14.283Z,20.28
2016-07-11T04:56:14.266Z,20.38
2016-07-11T04:57:14.250Z,20.31
2016-07-11T04:58:14.257Z,20.39
2016-07-11T04:59:14.252Z,20.31
2016-07-11T05:00:14.259Z,20.33
2016-07-11T05:01:14.268Z,20.34
2016-07-11T05:02:14.286Z,20.42
2016-07-11T05:03:14.294Z,20.31
2016-07-11T05:04:14.287Z,20.47
2016-07-11T05:05:14.282Z,20.43
2016-07-11T05:06:14.284Z,20.47
2016-07-11T05:07:14.256Z,20.43
2016-07-11T05:08:14.814Z,20.51
2016-07-11T05:09:14.332Z,20.5
2016-07-11T05:10:14.353Z,20.39
2016-07-11T05:11:14.290Z,20.53
2016-07-11T05:12:14.467Z,20.47
2016-07-11T05:13:14.283Z,20.59
2016-07-11T05:14:14.325Z,20.59
2016-07-11T05:15:14.298Z,20.59
2016-07-11T05:16:14.296Z,20.61
2016-07-11T05:17:14.313Z,20.62
2016-07-11T05:18:14.288Z,20.61
2016-07-11T05:19:15.068Z,20.71
2016-07-11T05:20:14.644Z,20.74
2016-07-11T05:21:14.355Z,20.59
2016-07-11T05:22:14.288Z,20.74
2016-07-11T05:23:14.381Z,20.65
2016-07-11T05:24:14.332Z,20.69
2016-07-11T05:25:14.343Z,20.72
2016-07-11T05:26:14.828Z,20.68
2016-07-11T05:27:14.315Z,20.71
2016-07-11T05:28:14.321Z,20.77
2016-07-11T05:29:14.338Z,20.79
2016-07-11T05:30:14.330Z,20.64
2016-07-11T05:31:14.379Z,20.68
2016-07-11T05:32:14.287Z,20.76
2016-07-11T05:33:14.351Z,20.77
2016-07-11T05:34:14.312Z,20.81
2016-07-11T05:35:14.308Z,20.77
2016-07-11T05:36:14.282Z,20.81
2016-07-11T05:37:14.377Z,20.76
2016-07-11T05:38:14.327Z,20.77
2016-07-11T05:39:14.358Z,20.76
2016-07-11T05:40:14.313Z,20.76
2016-07-11T05:41:14.314Z,20.87
2016-07-11T05:42:14.290Z,20.86
2016-07-11T05:43:14.425Z,20.89
2016-07-11T05:44:14.349Z,20.91
2016-07-11T05:45:14.315Z,20.86
2016-07-11T05:46:14.357Z,20.89
2016-07-11T05:47:14.311Z,20.86
2016-07-11T05:48:14.319Z,20.9
2016-07-11T05:49:14.384Z,20.81
2016-07-11T05:50:14.350Z,20.95
2016-07-11T05:51:14.324Z,20.83
2016-07-11T05:52:14.367Z,20.86
2016-07-11T05:53:14.357Z,20.89
2016-07-11T05:54:14.334Z,20.8
2016-07-11T05:55:14.377Z,20.79
2016-07-11T05:56:14.349Z,20.9
2016-07-11T05:57:14.316Z,20.86
2016-07-11T05:58:14.313Z,20.8
2016-07-11T05:59:14.349Z,20.87
2016-07-11T06:00:14.318Z,20.84
2016-07-11T06:01:14.430Z,20.83
2016-07-11T06:02:14.413Z,20.89
2016-07-11T06:03:14.359Z,20.84
2016-07-11T06:04:14.332Z,20.87
2016-07-11T06:05:14.372Z,20.87
2016-07-11T06:06:14.319Z,21.01
2016-07-11T06:07:14.547Z,20.91
2016-07-11T06:08:14.350Z,20.99
2016-07-11T06:09:14.356Z,21.06
2016-07-11T06:10:14.345Z,21.05
2016-07-11T06:11:14.337Z,20.93
2016-07-11T06:12:14.386Z,21.08
2016-07-11T06:13:14.356Z,21.26
2016-07-11T06:14:14.390Z,21.08
2016-07-11T06:15:14.390Z,21.21
2016-07-11T06:16:14.410Z,21.24
2016-07-11T06:17:14.415Z,21.3
2016-07-11T06:18:14.385Z,21.36
2016-07-11T06:19:14.366Z,21.29
2016-07-11T06:20:14.381Z,21.17
2016-07-11T06:21:14.332Z,21.29
2016-07-11T06:22:14.344Z,21.32
2016-07-11T06:23:14.319Z,21.39
2016-07-11T06:24:14.330Z,21.41
2016-07-11T06:25:14.381Z,21.48
2016-07-11T06:26:14.323Z,21.6
2016-07-11T06:27:14.341Z,21.5
2016-07-11T06:28:14.966Z,21.56
2016-07-11T06:29:14.322Z,21.6
2016-07-11T06:30:14.349Z,21.57
2016-07-11T06:31:14.333Z,21.6
2016-07-11T06:32:14.342Z,21.67
2016-07-11T06:33:14.388Z,21.79
2016-07-11T06:34:14.348Z,21.82
2016-07-11T06:35:14.344Z,21.74
2016-07-11T06:36:14.359Z,21.94
2016-07-11T06:37:14.383Z,21.81
2016-07-11T06:38:14.395Z,21.83
2016-07-11T06:39:14.394Z,21.81
2016-07-11T06:40:14.399Z,21.91
2016-07-11T06:41:14.380Z,21.94
2016-07-11T06:42:14.490Z,21.85
2016-07-11T06:43:14.552Z,21.9
2016-07-11T06:44:45.358Z,21.94
2016-07-11T06:45:30.042Z,21.85
2016-07-11T06:46:38.974Z,21.79
2016-07-11T06:47:25.031Z,21.81
2016-07-11T06:48:23.376Z,21.82
2016-07-11T06:49:23.514Z,21.98
2016-07-11T06:50:57.944Z,21.83
2016-07-11T06:52:13.907Z,22.01
2016-07-11T06:53:39.854Z,21.94
2016-07-11T06:55:00.312Z,21.81
2016-07-11T06:56:11.725Z,21.92
2016-07-11T06:57:35.667Z,22.01
2016-07-11T06:58:53.089Z,22.04
2016-07-11T07:00:13.346Z,22.13
2016-07-11T07:03:41.420Z,22.38
2016-07-11T07:04:51.031Z,22.47
2016-07-11T07:05:25.666Z,22.37
2016-07-11T07:06:44.339Z,22.6
2016-07-11T07:07:28.428Z,22.46
2016-07-11T07:08:50.753Z,22.44
2016-07-11T07:09:43.887Z,22.62
2016-07-11T07:10:25.676Z,22.57
2016-07-11T07:11:25.700Z,22.69
2016-07-11T07:12:25.713Z,22.72
2016-07-11T07:13:25.669Z,22.71
2016-07-11T07:14:25.700Z,22.65
2016-07-11T07:15:25.694Z,22.78
2016-07-11T07:16:25.658Z,22.77
2016-07-11T07:17:25.669Z,22.84
2016-07-11T07:18:25.669Z,22.54
2016-07-11T07:19:25.665Z,22.53
2016-07-11T07:20:25.694Z,22.44
2016-07-11T07:21:25.688Z,22.38
2016-07-11T07:22:25.717Z,22.52
2016-07-11T07:23:25.702Z,22.54
2016-07-11T07:24:25.691Z,22.47
2016-07-11T07:25:25.724Z,22.41
2016-07-11T07:26:25.693Z,22.54
2016-07-11T07:27:25.692Z,22.6
2016-07-11T07:28:25.708Z,22.5
2016-07-11T07:29:25.684Z,22.54
2016-07-11T07:30:25.709Z,22.35
2016-07-11T07:31:25.692Z,22.32
2016-07-11T07:32:25.702Z,22.37
2016-07-11T07:33:25.694Z,22.37
2016-07-11T07:34:25.716Z,22.29
2016-07-11T07:35:25.695Z,22.34
2016-07-11T07:36:25.726Z,22.41
2016-07-11T07:37:25.707Z,22.39
2016-07-11T07:38:25.698Z,22.5
2016-07-11T07:39:25.723Z,22.62
2016-07-11T07:40:25.734Z,22.53
2016-07-11T07:41:25.721Z,22.56
2016-07-11T07:42:25.729Z,22.59
2016-07-11T07:43:25.750Z,22.72
2016-07-11T07:44:25.757Z,22.75
2016-07-11T07:45:26.427Z,22.83
2016-07-11T07:46:25.843Z,23.14
2016-07-11T07:47:25.826Z,22.77
2016-07-11T07:48:25.798Z,23.01
2016-07-11T07:49:25.785Z,23.15
2016-07-11T07:50:25.746Z,23.31
2016-07-11T07:51:25.763Z,23.42
2016-07-11T07:52:25.740Z,23.39
2016-07-11T07:53:25.746Z,23.31
2016-07-11T07:54:25.754Z,23.57
2016-07-11T07:55:25.726Z,23.39
2016-07-11T07:56:25.705Z,24.05
2016-07-11T07:57:25.730Z,24.35
2016-07-11T07:58:25.732Z,24.22
2016-07-11T07:59:25.727Z,24.19
2016-07-11T08:00:25.757Z,24.38
2016-07-11T08:01:25.726Z,24.59
2016-07-11T08:02:25.725Z,24.6
2016-07-11T08:03:25.724Z,24.76
2016-07-11T08:04:25.709Z,24.85
2016-07-11T08:05:25.758Z,24.8
2016-07-11T08:06:25.725Z,24.87
2016-07-11T08:07:25.731Z,24.94
2016-07-11T08:08:25.738Z,24.79
2016-07-11T08:09:25.737Z,24.68
2016-07-11T08:10:25.741Z,24.56
2016-07-11T08:11:25.758Z,24.5
2016-07-11T08:12:25.743Z,24.47
2016-07-11T08:13:26.516Z,24.39
2016-07-11T08:14:25.731Z,24.42
2016-07-11T08:15:25.725Z,24.29
2016-07-11T08:16:25.720Z,24.19
2016-07-11T08:17:25.719Z,24.04
2016-07-11T08:18:25.865Z,23.89
2016-07-11T08:19:25.740Z,23.92
2016-07-11T08:20:25.781Z,23.97
2016-07-11T08:21:25.780Z,23.94
2016-07-11T08:22:25.789Z,24.05
2016-07-11T08:23:25.787Z,24.29
2016-07-11T08:24:26.157Z,24.41
2016-07-11T08:25:25.853Z,24.57
2016-07-11T08:26:25.995Z,24.56
2016-07-11T08:27:26.031Z,24.88
2016-07-11T08:28:25.891Z,24.91
2016-07-11T08:29:25.742Z,25.12
2016-07-11T08:30:25.757Z,25.35
2016-07-11T08:31:25.795Z,25.1
2016-07-11T08:32:25.876Z,25.16
2016-07-11T08:33:25.763Z,25.07
2016-07-11T08:34:25.797Z,25.13
2016-07-11T08:35:25.832Z,25
2016-07-11T08:36:25.831Z,25.07
2016-07-11T08:37:25.777Z,24.92
2016-07-11T08:38:25.792Z,24.9
2016-07-11T08:39:25.845Z,24.8
2016-07-11T08:40:25.848Z,24.75
2016-07-11T08:41:25.851Z,24.71
2016-07-11T08:42:25.900Z,24.77
2016-07-11T08:43:25.794Z,24.87
2016-07-11T08:44:25.827Z,24.98
2016-07-11T08:45:25.810Z,25.06
2016-07-11T08:46:25.826Z,25.01
2016-07-11T08:47:25.799Z,25.25
2016-07-11T08:48:25.853Z,25.27
2016-07-11T08:49:25.839Z,25.35
2016-07-11T08:50:25.900Z,25.42
2016-07-11T08:51:25.805Z,25.32
2016-07-11T08:52:25.816Z,25.3
2016-07-11T08:53:25.913Z,25.31
2016-07-11T08:54:25.857Z,25.25
2016-07-11T08:55:25.805Z,25.19
2016-07-11T08:56:25.854Z,25.07
2016-07-11T08:57:25.961Z,25.12
2016-07-11T08:58:26.118Z,25.19
2016-07-11T08:59:25.819Z,25.27
2016-07-11T09:00:25.836Z,25.07
2016-07-11T09:01:25.817Z,25.09
2016-07-11T09:02:25.834Z,25
2016-07-11T09:03:25.868Z,25
2016-07-11T09:04:25.834Z,24.88
2016-07-11T09:05:25.940Z,25.07
2016-07-11T09:06:25.818Z,25.09
2016-07-11T09:07:25.881Z,25.12
2016-07-11T09:08:25.816Z,25.06
2016-07-11T09:09:25.816Z,24.95
2016-07-11T09:10:25.812Z,25.07
2016-07-11T09:11:25.848Z,25.01
2016-07-11T09:12:25.810Z,24.61
2016-07-11T09:13:25.879Z,24.88
2016-07-11T09:14:25.820Z,24.8
2016-07-11T09:15:25.847Z,24.5
2016-07-11T09:16:25.864Z,24.27
2016-07-11T09:17:25.820Z,24.07
2016-07-11T09:18:25.835Z,24.13
2016-07-11T09:19:25.810Z,24.07
2016-07-11T09:20:25.809Z,23.94
2016-07-11T09:21:25.833Z,23.94
2016-07-11T09:22:25.846Z,23.87
2016-07-11T09:23:25.863Z,23.83
2016-07-11T09:24:25.834Z,23.79
2016-07-11T09:25:25.832Z,23.92
2016-07-11T09:26:25.852Z,23.9
2016-07-11T09:27:25.825Z,23.79
2016-07-11T09:28:25.807Z,24.01
2016-07-11T09:29:25.836Z,24.02
2016-07-11T09:30:25.819Z,24.1
2016-07-11T09:31:25.874Z,24.22
2016-07-11T09:32:25.817Z,24.13
2016-07-11T09:33:25.835Z,23.97
2016-07-11T09:34:25.830Z,23.89
2016-07-11T09:35:25.848Z,23.94
2016-07-11T09:36:25.869Z,24.01
2016-07-11T09:37:25.900Z,23.98
2016-07-11T09:38:25.872Z,23.97
2016-07-11T09:39:25.850Z,23.9
2016-07-11T09:40:25.900Z,24.13
2016-07-11T09:41:25.849Z,24.34
2016-07-11T09:42:25.840Z,24.45
2016-07-11T09:43:25.912Z,24.75
2016-07-11T09:44:25.880Z,24.76
2016-07-11T09:45:25.859Z,24.88
2016-07-11T09:46:25.910Z,24.8
2016-07-11T09:47:25.856Z,24.64
2016-07-11T09:48:25.863Z,24.64
2016-07-11T09:49:25.957Z,24.87
2016-07-11T09:50:26.551Z,24.8
2016-07-11T09:51:25.974Z,24.83
2016-07-11T09:52:25.929Z,25.02
2016-07-11T09:53:25.911Z,25.32
2016-07-11T09:54:25.886Z,25.37
2016-07-11T09:55:25.896Z,25.44
2016-07-11T09:56:25.875Z,25.34
2016-07-11T09:57:25.946Z,25.47
2016-07-11T09:58:25.924Z,25.46
2016-07-11T09:59:26.359Z,25.62
2016-07-11T10:00:26.107Z,25.54
2016-07-11T10:01:25.893Z,25.42
2016-07-11T10:02:25.889Z,25.31
2016-07-11T10:03:25.864Z,25.17
2016-07-11T10:04:26.308Z,25.12
2016-07-11T10:05:26.114Z,25.25
2016-07-11T10:06:26.015Z,25.06
2016-07-11T10:07:26.107Z,25.12
2016-07-11T10:08:25.850Z,24.92
2016-07-11T10:09:26.008Z,25.09
2016-07-11T10:10:25.884Z,25.06
2016-07-11T10:11:25.883Z,24.92
2016-07-11T10:12:25.970Z,24.95
2016-07-11T10:13:25.916Z,25.25
2016-07-11T10:14:25.906Z,25.53
2016-07-11T10:15:25.877Z,25.35
2016-07-11T10:16:26.534Z,25.17
2016-07-11T10:17:26.926Z,25.09
2016-07-11T10:18:26.025Z,24.9
2016-07-11T10:19:26.206Z,24.77
2016-07-11T10:20:26.150Z,24.82
2016-07-11T10:21:25.912Z,24.45
2016-07-11T10:22:25.905Z,24.26
2016-07-11T10:23:25.958Z,24.22
2016-07-11T10:24:25.967Z,24.26
2016-07-11T10:25:25.933Z,24.26
2016-07-11T10:26:25.958Z,24.17
2016-07-11T10:27:26.130Z,24.02
2016-07-11T10:28:25.900Z,24.04
2016-07-11T10:29:25.899Z,23.86
2016-07-11T10:30:25.888Z,24.02
2016-07-11T10:31:25.914Z,24.04
2016-07-11T10:32:25.873Z,24.01
2016-07-11T10:33:25.903Z,24.02
2016-07-11T10:34:25.913Z,24
2016-07-11T10:35:25.889Z,24.02
2016-07-11T10:36:25.899Z,23.82
2016-07-11T10:37:26.136Z,23.9
2016-07-11T10:38:26.076Z,23.72
2016-07-11T10:39:26.061Z,23.86
2016-07-11T10:40:25.912Z,23.83
2016-07-11T10:41:26.136Z,23.77
2016-07-11T10:42:26.654Z,23.89
2016-07-11T10:43:26.484Z,24.01
2016-07-11T10:44:26.455Z,23.86
2016-07-11T10:45:25.973Z,23.89
2016-07-11T10:46:25.915Z,23.92
2016-07-11T10:47:25.922Z,24.04
2016-07-11T10:48:25.944Z,24.02
2016-07-11T10:49:25.935Z,23.94
2016-07-11T10:50:25.945Z,24.12
2016-07-11T10:51:25.972Z,23.85
2016-07-11T10:52:25.983Z,23.95
2016-07-11T10:53:26.308Z,23.68
2016-07-11T10:54:25.947Z,23.7
2016-07-11T10:55:25.920Z,23.83
2016-07-11T10:56:26.035Z,23.65
2016-07-11T10:57:25.937Z,23.46
2016-07-11T10:58:26.066Z,23.27
2016-07-11T10:59:25.965Z,23.4
2016-07-11T11:00:26.245Z,23.6
2016-07-11T11:01:26.784Z,23.53
2016-07-11T11:02:26.031Z,23.5
2016-07-11T11:03:25.976Z,23.68
2016-07-11T11:04:26.218Z,23.8
2016-07-11T11:05:26.262Z,23.61
2016-07-11T11:06:25.963Z,23.64
2016-07-11T11:07:26.051Z,23.86
2016-07-11T11:08:26.664Z,23.79
2016-07-11T11:09:25.939Z,23.97
2016-07-11T11:10:26.003Z,23.95
2016-07-11T11:11:26.130Z,23.94
2016-07-11T11:12:25.982Z,23.7
2016-07-11T11:13:25.915Z,23.85
2016-07-11T11:14:25.976Z,23.62
2016-07-11T11:15:25.930Z,23.8
2016-07-11T11:16:25.950Z,23.89
2016-07-11T11:17:25.948Z,23.83
2016-07-11T11:18:25.928Z,23.97
2016-07-11T11:19:26.037Z,23.9
2016-07-11T11:20:25.947Z,23.94
2016-07-11T11:21:26.108Z,23.82
2016-07-11T11:22:25.946Z,24.01
2016-07-11T11:23:26.283Z,24.17
2016-07-11T11:24:25.978Z,24.34
2016-07-11T11:25:25.977Z,24.53
2016-07-11T11:26:26.005Z,24.6
2016-07-11T11:27:26.227Z,24.61
2016-07-11T11:28:26.262Z,24.73
2016-07-11T11:29:25.975Z,24.79
2016-07-11T11:30:25.947Z,25.06
2016-07-11T11:31:25.964Z,25.2
2016-07-11T11:32:26.038Z,25.42
2016-07-11T11:33:25.974Z,25.64
2016-07-11T11:34:26.169Z,25.71
2016-07-11T11:35:26.096Z,25.82
2016-07-11T11:36:26.346Z,25.94
2016-07-11T11:37:26.252Z,26.04
2016-07-11T11:38:25.994Z,25.91
2016-07-11T11:39:25.983Z,25.94
2016-07-11T11:40:26.158Z,25.93
2016-07-11T11:41:25.984Z,25.98
2016-07-11T11:42:25.991Z,26.06
2016-07-11T11:43:26.080Z,25.84
2016-07-11T11:44:26.079Z,26.01
2016-07-11T11:45:26.229Z,25.99
2016-07-11T11:46:26.578Z,26.06
2016-07-11T11:47:26.097Z,25.98
2016-07-11T11:48:25.975Z,26.06
2016-07-11T11:49:26.009Z,26.17
2016-07-11T11:50:25.955Z,26.09
2016-07-11T11:51:25.981Z,26.09
2016-07-11T11:52:26.245Z,26.01
2016-07-11T11:53:26.009Z,25.93
2016-07-11T11:54:26.007Z,25.82
2016-07-11T11:55:26.012Z,25.74
2016-07-11T11:56:25.993Z,25.84
2016-07-11T11:57:25.969Z,26.18
2016-07-11T12:00:27.766Z,26.01
2016-07-11T12:00:39.537Z,25.82
2016-07-11T12:01:39.441Z,25.75
2016-07-11T12:02:39.474Z,25.49
2016-07-11T12:03:39.487Z,25.39
2016-07-11T12:04:39.435Z,25.5
2016-07-11T12:05:39.442Z,25.57
2016-07-11T12:06:39.469Z,25.89
2016-07-11T12:07:39.472Z,25.86
2016-07-11T12:08:39.463Z,25.71
2016-07-11T12:09:39.455Z,25.65
2016-07-11T12:10:39.479Z,25.72
2016-07-11T12:11:39.516Z,25.59
2016-07-11T12:12:39.489Z,25.75
2016-07-11T12:13:39.532Z,25.71
2016-07-11T12:14:39.518Z,25.59
2016-07-11T12:15:39.480Z,25.74
2016-07-11T12:16:39.477Z,25.68
2016-07-11T12:17:39.477Z,25.49
2016-07-11T12:18:39.485Z,25.35
2016-07-11T12:19:39.546Z,25.44
2016-07-11T12:20:39.478Z,25.5
2016-07-11T12:21:39.515Z,25.28
2016-07-11T12:22:39.979Z,25.19
2016-07-11T12:23:39.467Z,25.27
2016-07-11T12:24:39.498Z,25.32
2016-07-11T12:25:39.490Z,25.28
2016-07-11T12:26:39.570Z,25.35
2016-07-11T12:27:39.526Z,25.24
2016-07-11T12:28:39.510Z,25.22
2016-07-11T12:29:39.542Z,25.24
2016-07-11T12:30:39.493Z,25.22
2016-07-11T12:31:39.513Z,25.34
2016-07-11T12:32:39.542Z,25.44
2016-07-11T12:33:39.528Z,25.37
2016-07-11T12:34:39.516Z,25.32
2016-07-11T12:35:39.504Z,25.42
2016-07-11T12:36:39.520Z,25.27
2016-07-11T12:37:39.585Z,25.25
2016-07-11T12:38:39.505Z,25.24
2016-07-11T12:39:39.626Z,25.31
2016-07-11T12:40:39.511Z,25.22
2016-07-11T12:41:39.517Z,25.32
2016-07-11T12:42:39.534Z,25.39
2016-07-11T12:43:39.552Z,25.37
2016-07-11T12:44:39.660Z,25.47
2016-07-11T12:45:39.519Z,25.56
2016-07-11T12:46:39.515Z,25.59
2016-07-11T12:47:39.547Z,25.57
2016-07-11T12:48:39.497Z,25.57
2016-07-11T12:49:39.502Z,25.53
2016-07-11T12:50:39.509Z,25.52
2016-07-11T12:51:39.690Z,25.44
2016-07-11T12:52:39.532Z,25.34
2016-07-11T12:53:39.575Z,25.5
2016-07-11T12:54:39.665Z,25.67
2016-07-11T12:55:39.555Z,25.61
2016-07-11T12:56:39.572Z,25.68
2016-07-11T12:57:40.240Z,25.64
2016-07-11T12:58:40.606Z,25.77
2016-07-11T12:59:39.535Z,25.72
2016-07-11T13:00:39.556Z,25.75
2016-07-11T13:01:39.573Z,25.72